Time;durP1;ratioP1;P1;durP2;ratioP2;P2;SDS_P1;SDS_P2;PMS_P1;PMS_P2;Temp;Humidity;BMP_temperature;BMP_pressure;BME280_temperature;BME280_humidity;BME280_pressure;Samples;Min_cycle;Max_cycle;Signal;HPM_P1;HPM_P2
2023/11/09 00:02:15;;;;;;;0.10;0.10;;;;;;;;;;4898941;29;20057;-88
2023/11/09 00:04:42;;;;;;;0.10;0.10;;;;;;;;;;4883448;29;20051;-87
2023/11/09 00:07:08;;;;;;;0.10;0.10;;;;;;;;;;4868196;29;20044;-87
2023/11/09 00:09:34;;;;;;;0.10;0.10;;;;;;;;;;4883462;29;20123;-87
2023/11/09 00:12:00;;;;;;;0.10;0.10;;;;;;;;;;4883550;29;20044;-87
2023/11/09 00:14:26;;;;;;;0.10;0.10;;;;;;;;;;4898880;29;20195;-87
2023/11/09 00:16:53;;;;;;;0.10;0.10;;;;;;;;;;4898767;29;20495;-88
2023/11/09 00:19:19;;;;;;;0.10;0.10;;;;;;;;;;4899153;29;20404;-88
2023/11/09 00:21:46;;;;;;;0.10;0.10;;;;;;;;;;4883378;29;20040;-88
2023/11/09 00:24:12;;;;;;;0.15;0.15;;;;;;;;;;4868184;29;20408;-87
2023/11/09 00:26:41;;;;;;;0.10;0.10;;;;;;;;;;4898800;29;20051;-88
2023/11/09 00:29:07;;;;;;;0.20;0.20;;;;;;;;;;4868033;29;20089;-88
2023/11/09 00:31:33;;;;;;;0.10;0.10;;;;;;;;;;4898947;29;20051;-88
2023/11/09 00:33:59;;;;;;;0.10;0.10;;;;;;;;;;4898663;29;20140;-88
2023/11/09 00:36:26;;;;;;;0.10;0.10;;;;;;;;;;4898988;29;20046;-89
2023/11/09 00:38:52;;;;;;;0.20;0.20;;;;;;;;;;4898786;29;20040;-88
2023/11/09 00:41:18;;;;;;;0.10;0.10;;;;;;;;;;4898673;29;20051;-88
2023/11/09 00:43:43;;;;;;;0.17;0.17;;;;;;;;;;4883165;29;20040;-86
2023/11/09 00:46:10;;;;;;;0.10;0.10;;;;;;;;;;4883193;29;20464;-86
2023/11/09 00:48:36;;;;;;;0.10;0.10;;;;;;;;;;4915782;29;20051;-87
2023/11/09 00:51:02;;;;;;;0.10;0.10;;;;;;;;;;4898288;29;20064;-86
2023/11/09 00:53:28;;;;;;;0.10;0.10;;;;;;;;;;4898519;29;20492;-87
2023/11/09 00:55:54;;;;;;;0.10;0.10;;;;;;;;;;4867784;29;20048;-88
2023/11/09 00:58:20;;;;;;;0.10;0.10;;;;;;;;;;4898572;29;20075;-88
2023/11/09 01:00:46;;;;;;;0.10;0.10;;;;;;;;;;4882998;29;20432;-87
2023/11/09 01:03:12;;;;;;;0.10;0.10;;;;;;;;;;4882992;29;20551;-88
2023/11/09 01:05:38;;;;;;;0.10;0.10;;;;;;;;;;4867502;29;20135;-88
2023/11/09 01:08:04;;;;;;;0.10;0.10;;;;;;;;;;4882960;29;20044;-87
2023/11/09 01:10:30;;;;;;;0.10;0.10;;;;;;;;;;4867356;29;20484;-87
2023/11/09 01:12:57;;;;;;;0.10;0.10;;;;;;;;;;4898282;29;20052;-88
2023/11/09 01:15:23;;;;;;;0.10;0.10;;;;;;;;;;4870198;29;20050;-87
2023/11/09 01:18:02;;;;;;;0.10;0.10;;;;;;;;;;4901809;29;20095;-87
2023/11/09 01:20:29;;;;;;;0.10;0.10;;;;;;;;;;4886587;29;20051;-87
2023/11/09 01:22:55;;;;;;;0.10;0.10;;;;;;;;;;4901863;29;20064;-87
2023/11/09 01:25:21;;;;;;;0.10;0.10;;;;;;;;;;4886411;29;20051;-87
2023/11/09 01:27:47;;;;;;;0.10;0.10;;;;;;;;;;4886069;29;20048;-87
2023/11/09 01:30:13;;;;;;;0.10;0.10;;;;;;;;;;4885978;29;20048;-88
2023/11/09 01:32:39;;;;;;;0.10;0.10;;;;;;;;;;4901497;29;20518;-87
2023/11/09 01:35:05;;;;;;;0.10;0.10;;;;;;;;;;4886007;29;20055;-87
2023/11/09 01:37:31;;;;;;;0.10;0.10;;;;;;;;;;4885991;29;20555;-88
2023/11/09 01:39:57;;;;;;;0.10;0.10;;;;;;;;;;4901303;29;20051;-87
2023/11/09 01:42:23;;;;;;;0.28;0.28;;;;;;;;;;4885906;29;20095;-88
2023/11/09 01:44:49;;;;;;;0.10;0.10;;;;;;;;;;4885852;29;20047;-88
2023/11/09 01:47:15;;;;;;;0.10;0.10;;;;;;;;;;4885757;29;20040;-88
2023/11/09 01:49:41;;;;;;;0.20;0.20;;;;;;;;;;4870003;29;20060;-87
2023/11/09 01:52:07;;;;;;;0.10;0.10;;;;;;;;;;4901162;29;20075;-88
2023/11/09 01:54:33;;;;;;;0.15;0.15;;;;;;;;;;4885446;29;20083;-88
2023/11/09 01:56:59;;;;;;;0.10;0.10;;;;;;;;;;4870092;29;20039;-89
2023/11/09 01:59:25;;;;;;;0.10;0.10;;;;;;;;;;4885859;29;20063;-88
2023/11/09 02:01:52;;;;;;;0.10;0.10;;;;;;;;;;4870066;29;20040;-88
2023/11/09 02:04:19;;;;;;;0.10;0.10;;;;;;;;;;4885522;29;20453;-88
2023/11/09 02:06:45;;;;;;;0.10;0.10;;;;;;;;;;4885660;29;20044;-88
2023/11/09 02:09:12;;;;;;;0.10;0.10;;;;;;;;;;4869770;29;20047;-88
2023/11/09 02:11:38;;;;;;;0.10;0.10;;;;;;;;;;4869898;29;20048;-87
2023/11/09 02:14:04;;;;;;;0.10;0.10;;;;;;;;;;4885205;29;20051;-88
2023/11/09 02:16:30;;;;;;;0.10;0.10;;;;;;;;;;4885480;29;20036;-88
2023/11/09 02:18:56;;;;;;;0.10;0.10;;;;;;;;;;4885260;29;20047;-88
2023/11/09 02:21:23;;;;;;;0.10;0.10;;;;;;;;;;4885363;29;20036;-87
2023/11/09 02:23:49;;;;;;;0.10;0.10;;;;;;;;;;4885113;29;20079;-88
2023/11/09 02:26:15;;;;;;;0.10;0.10;;;;;;;;;;4885114;29;20068;-87
2023/11/09 02:28:41;;;;;;;0.10;0.10;;;;;;;;;;4885249;29;20078;-87
2023/11/09 02:31:07;;;;;;;0.10;0.10;;;;;;;;;;4900669;29;20040;-87
2023/11/09 02:33:33;;;;;;;0.10;0.10;;;;;;;;;;4869689;29;20040;-87
2023/11/09 02:35:59;;;;;;;0.10;0.10;;;;;;;;;;4869460;29;20044;-87
2023/11/09 02:38:25;;;;;;;0.10;0.10;;;;;;;;;;4900460;29;20040;-87
2023/11/09 02:40:51;;;;;;;0.10;0.10;;;;;;;;;;4884780;29;20123;-87
2023/11/09 02:43:17;;;;;;;0.10;0.10;;;;;;;;;;4900235;29;20432;-87
2023/11/09 02:45:43;;;;;;;0.10;0.10;;;;;;;;;;4900230;29;20534;-87
2023/11/09 02:48:09;;;;;;;0.10;0.10;;;;;;;;;;4917116;29;20044;-87
2023/11/09 02:50:35;;;;;;;0.10;0.10;;;;;;;;;;4884492;29;20052;-88
2023/11/09 02:53:01;;;;;;;0.10;0.10;;;;;;;;;;4869248;29;20059;-87
2023/11/09 02:55:27;;;;;;;0.10;0.10;;;;;;;;;;4900090;29;20173;-88
2023/11/09 02:57:53;;;;;;;0.20;0.20;;;;;;;;;;4884567;29;20051;-87
2023/11/09 03:00:19;;;;;;;0.10;0.10;;;;;;;;;;4884362;29;20075;-88
2023/11/09 03:02:45;;;;;;;0.10;0.10;;;;;;;;;;4899886;29;20196;-88
2023/11/09 03:05:11;;;;;;;0.10;0.10;;;;;;;;;;4899863;29;20043;-88
2023/11/09 03:07:37;;;;;;;0.10;0.10;;;;;;;;;;4884340;29;20121;-88
2023/11/09 03:10:03;;;;;;;0.10;0.10;;;;;;;;;;4899679;29;20040;-87
2023/11/09 03:12:29;;;;;;;0.10;0.10;;;;;;;;;;4884350;29;20412;-88
2023/11/09 03:14:55;;;;;;;0.10;0.10;;;;;;;;;;4899574;29;20048;-88
2023/11/09 03:17:22;;;;;;;0.10;0.10;;;;;;;;;;4899607;29;20118;-88
2023/11/09 03:19:48;;;;;;;0.10;0.10;;;;;;;;;;4899517;29;20044;-87
2023/11/09 03:22:14;;;;;;;0.10;0.10;;;;;;;;;;4884033;29;20042;-88
2023/11/09 03:24:43;;;;;;;0.10;0.10;;;;;;;;;;4899477;29;20052;-88
2023/11/09 03:27:10;;;;;;;0.10;0.10;;;;;;;;;;4899552;29;20047;-88
2023/11/09 03:29:37;;;;;;;0.10;0.10;;;;;;;;;;4883844;29;20048;-88
2023/11/09 03:32:04;;;;;;;0.10;0.10;;;;;;;;;;4884058;29;20048;-87
2023/11/09 03:34:30;;;;;;;0.10;0.10;;;;;;;;;;4884180;29;20044;-87
2023/11/09 03:36:56;;;;;;;0.10;0.10;;;;;;;;;;4883503;29;20622;-87
2023/11/09 03:39:24;;;;;;;0.10;0.10;;;;;;;;;;4899147;29;20115;-87
2023/11/09 03:41:51;;;;;;;0.10;0.10;;;;;;;;;;4899070;29;20139;-87
2023/11/09 03:44:17;;;;;;;0.10;0.10;;;;;;;;;;4868607;29;20212;-87
2023/11/09 03:46:43;;;;;;;0.10;0.10;;;;;;;;;;4883718;29;20492;-88
2023/11/09 03:49:10;;;;;;;0.10;0.10;;;;;;;;;;4898765;29;20047;-87
2023/11/09 03:51:36;;;;;;;0.10;0.10;;;;;;;;;;4883797;29;20456;-88
2023/11/09 03:54:03;;;;;;;0.10;0.10;;;;;;;;;;4899148;29;20048;-87
2023/11/09 03:56:29;;;;;;;0.20;0.20;;;;;;;;;;4899365;29;20099;-87
2023/11/09 03:58:55;;;;;;;0.10;0.10;;;;;;;;;;4883621;29;20123;-87
2023/11/09 04:01:21;;;;;;;0.10;0.10;;;;;;;;;;4868086;29;20040;-87
2023/11/09 04:03:47;;;;;;;0.10;0.10;;;;;;;;;;4898884;29;20067;-87
2023/11/09 04:06:17;;;;;;;0.10;0.10;;;;;;;;;;4868338;29;20087;-87
2023/11/09 04:08:44;;;;;;;0.10;0.10;;;;;;;;;;4868255;29;20040;-87
2023/11/09 04:11:10;;;;;;;0.10;0.10;;;;;;;;;;4898931;29;20123;-87
2023/11/09 04:13:36;;;;;;;0.10;0.10;;;;;;;;;;4883643;29;20040;-87
2023/11/09 04:16:03;;;;;;;0.10;0.10;;;;;;;;;;4883681;29;20092;-87
2023/11/09 04:18:30;;;;;;;0.10;0.10;;;;;;;;;;4868028;29;20075;-88
2023/11/09 04:20:56;;;;;;;0.10;0.10;;;;;;;;;;4898906;29;20048;-88
2023/11/09 04:23:22;;;;;;;0.10;0.10;;;;;;;;;;4898824;29;20075;-87
2023/11/09 04:25:51;;;;;;;0.10;0.10;;;;;;;;;;4883551;29;20086;-87
2023/11/09 04:28:17;;;;;;;0.10;0.10;;;;;;;;;;4898805;29;20040;-88
2023/11/09 04:30:43;;;;;;;0.10;0.10;;;;;;;;;;4883230;29;20044;-87
2023/11/09 04:33:09;;;;;;;0.10;0.10;;;;;;;;;;4883315;29;20159;-88
2023/11/09 04:35:41;;;;;;;0.10;0.10;;;;;;;;;;4883358;29;20044;-87
2023/11/09 04:38:14;;;;;;;0.20;0.20;;;;;;;;;;4883692;29;20119;-87
2023/11/09 04:40:41;;;;;;;0.10;0.10;;;;;;;;;;4898647;29;20055;-87
2023/11/09 04:43:07;;;;;;;0.10;0.10;;;;;;;;;;4883452;29;20076;-87
2023/11/09 04:45:35;;;;;;;0.10;0.10;;;;;;;;;;4898693;29;20072;-87
2023/11/09 04:48:08;;;;;;;0.10;0.10;;;;;;;;;;4898629;29;20055;-87
2023/11/09 04:50:33;;;;;;;0.20;0.20;;;;;;;;;;4901711;29;20059;-87
2023/11/09 04:53:19;;;;;;;0.10;0.10;;;;;;;;;;4886750;29;20397;-87
2023/11/09 04:55:57;;;;;;;0.10;0.10;;;;;;;;;;4873497;29;20051;-87
2023/11/09 05:06:48;;;;;;;0.10;0.10;;;;;;;;;;4889614;29;20083;-87
2023/11/09 05:09:15;;;;;;;0.10;0.10;;;;;;;;;;4901965;29;20073;-87
2023/11/09 05:11:41;;;;;;;0.10;0.10;;;;;;;;;;4886404;29;20127;-87
2023/11/09 05:14:07;;;;;;;0.10;0.10;;;;;;;;;;4902187;29;20135;-87
2023/11/09 05:16:33;;;;;;;0.10;0.10;;;;;;;;;;4902068;29;20098;-87
2023/11/09 05:18:59;;;;;;;0.25;0.25;;;;;;;;;;4886151;29;20507;-87
2023/11/09 05:21:25;;;;;;;0.10;0.10;;;;;;;;;;4901963;29;20095;-87
2023/11/09 05:23:51;;;;;;;0.10;0.10;;;;;;;;;;4886457;29;20051;-88
2023/11/09 05:26:17;;;;;;;0.10;0.10;;;;;;;;;;4901602;29;20040;-87
2023/11/09 05:28:45;;;;;;;0.10;0.10;;;;;;;;;;4886167;29;20499;-87
2023/11/09 05:31:11;;;;;;;0.20;0.20;;;;;;;;;;4886333;29;20071;-87
2023/11/09 05:33:40;;;;;;;0.10;0.10;;;;;;;;;;4870613;29;20042;-88
2023/11/09 05:36:07;;;;;;;0.10;0.10;;;;;;;;;;4886455;29;20063;-88
2023/11/09 05:38:34;;;;;;;0.10;0.10;;;;;;;;;;4870609;29;20047;-87
2023/11/09 05:41:00;;;;;;;0.10;0.10;;;;;;;;;;4870378;29;20051;-88
2023/11/09 05:43:27;;;;;;;0.10;0.10;;;;;;;;;;4870310;29;20424;-87
2023/11/09 05:45:53;;;;;;;0.10;0.10;;;;;;;;;;4901256;29;20076;-87
2023/11/09 05:48:19;;;;;;;0.10;0.10;;;;;;;;;;4901214;29;20514;-88
2023/11/09 05:50:45;;;;;;;0.10;0.10;;;;;;;;;;4870184;29;20465;-88
2023/11/09 05:53:13;;;;;;;0.10;0.10;;;;;;;;;;4885859;29;20067;-87
2023/11/09 05:55:39;;;;;;;0.10;0.10;;;;;;;;;;4885863;29;20076;-87
2023/11/09 05:58:05;;;;;;;0.10;0.10;;;;;;;;;;4901107;29;20123;-88
2023/11/09 06:00:31;;;;;;;0.10;0.10;;;;;;;;;;4885019;29;20086;-87
2023/11/09 06:02:57;;;;;;;0.20;0.20;;;;;;;;;;4885522;29;20564;-87
2023/11/09 06:05:26;;;;;;;0.10;0.10;;;;;;;;;;4885507;29;20075;-87
2023/11/09 06:07:58;;;;;;;0.10;0.10;;;;;;;;;;4885726;29;20127;-87
2023/11/09 06:10:25;;;;;;;0.10;0.10;;;;;;;;;;4885612;29;20048;-88
2023/11/09 06:12:51;;;;;;;0.10;0.10;;;;;;;;;;4900751;29;20080;-87
2023/11/09 06:15:17;;;;;;;0.13;0.13;;;;;;;;;;4885123;29;20103;-87
2023/11/09 06:17:43;;;;;;;0.20;0.20;;;;;;;;;;4885385;29;20123;-88
2023/11/09 06:20:13;;;;;;;0.10;0.10;;;;;;;;;;4900801;29;20055;-87
2023/11/09 06:22:41;;;;;;;0.10;0.10;;;;;;;;;;4900805;29;20040;-87
2023/11/09 06:25:09;;;;;;;0.10;0.10;;;;;;;;;;4869615;29;20040;-87
2023/11/09 06:27:35;;;;;;;0.10;0.10;;;;;;;;;;4869709;29;20047;-88
2023/11/09 06:30:03;;;;;;;0.13;0.13;;;;;;;;;;4900422;29;20176;-88
2023/11/09 06:32:30;;;;;;;0.10;0.10;;;;;;;;;;4900423;29;20048;-87
2023/11/09 06:34:56;;;;;;;0.10;0.10;;;;;;;;;;4885055;29;20051;-88
2023/11/09 06:37:22;;;;;;;0.10;0.10;;;;;;;;;;4900349;29;20048;-87
2023/11/09 06:39:49;;;;;;;0.10;0.10;;;;;;;;;;4884895;29;20036;-87
2023/11/09 06:42:17;;;;;;;0.10;0.10;;;;;;;;;;4884818;29;20048;-88
2023/11/09 06:44:46;;;;;;;0.10;0.10;;;;;;;;;;4869762;29;20412;-89
2023/11/09 06:47:12;;;;;;;0.20;0.20;;;;;;;;;;4869472;29;20054;-88
2023/11/09 06:49:38;;;;;;;0.10;0.10;;;;;;;;;;4884562;29;20055;-88
2023/11/09 06:52:09;;;;;;;0.28;0.28;;;;;;;;;;4900356;29;20426;-88
2023/11/09 06:54:35;;;;;;;0.10;0.10;;;;;;;;;;4899842;29;20044;-87
2023/11/09 06:57:02;;;;;;;0.10;0.10;;;;;;;;;;4884492;29;20047;-88
2023/11/09 06:59:28;;;;;;;0.10;0.10;;;;;;;;;;4868968;29;20075;-88
2023/11/09 07:01:55;;;;;;;0.10;0.10;;;;;;;;;;4899977;29;20488;-87
2023/11/09 07:04:23;;;;;;;0.10;0.10;;;;;;;;;;4899796;29;20047;-87
2023/11/09 07:06:49;;;;;;;0.10;0.10;;;;;;;;;;4884688;29;20090;-87
2023/11/09 07:09:17;;;;;;;0.10;0.10;;;;;;;;;;4899862;29;20044;-87
2023/11/09 07:11:44;;;;;;;0.10;0.10;;;;;;;;;;4899146;29;20476;-87
2023/11/09 07:14:11;;;;;;;0.10;0.10;;;;;;;;;;4899642;29;20515;-87
2023/11/09 07:16:37;;;;;;;0.10;0.10;;;;;;;;;;4899718;29;20075;-87
2023/11/09 07:19:03;;;;;;;0.28;0.28;;;;;;;;;;4884199;29;20043;-87
2023/11/09 07:21:29;;;;;;;0.10;0.10;;;;;;;;;;4884236;29;20038;-87
2023/11/09 07:24:04;;;;;;;0.10;0.10;;;;;;;;;;4884105;29;20386;-87
2023/11/09 07:26:31;;;;;;;0.10;0.10;;;;;;;;;;4885457;29;20123;-87
2023/11/09 07:28:57;;;;;;;0.10;0.10;;;;;;;;;;4883792;29;20036;-87
2023/11/09 07:31:23;;;;;;;0.10;0.10;;;;;;;;;;4883932;29;20040;-87
2023/11/09 07:33:50;;;;;;;0.10;0.10;;;;;;;;;;4899223;29;20135;-87
2023/11/09 07:36:19;;;;;;;0.10;0.10;;;;;;;;;;4883900;29;20052;-88
2023/11/09 07:38:45;;;;;;;0.10;0.10;;;;;;;;;;4884001;29;20044;-87
2023/11/09 07:41:11;;;;;;;0.10;0.10;;;;;;;;;;4883764;29;20044;-87
2023/11/09 07:43:37;;;;;;;0.10;0.10;;;;;;;;;;4883670;29;20040;-87
2023/11/09 07:46:04;;;;;;;0.10;0.10;;;;;;;;;;4883675;29;20048;-88
2023/11/09 07:48:30;;;;;;;0.10;0.10;;;;;;;;;;4883637;29;20135;-87
2023/11/09 07:50:56;;;;;;;0.10;0.10;;;;;;;;;;4898735;29;20155;-87
2023/11/09 07:53:22;;;;;;;0.10;0.10;;;;;;;;;;4868234;29;20055;-88
2023/11/09 07:55:50;;;;;;;0.10;0.10;;;;;;;;;;4868325;29;20040;-87
2023/11/09 07:58:17;;;;;;;0.10;0.10;;;;;;;;;;4884101;29;20043;-88
2023/11/09 08:00:43;;;;;;;0.10;0.10;;;;;;;;;;4868253;29;20044;-87
2023/11/09 08:03:09;;;;;;;0.43;0.43;;;;;;;;;;4867993;29;20067;-88
2023/11/09 08:05:41;;;;;;;0.10;0.10;;;;;;;;;;4883464;29;20064;-88
2023/11/09 08:08:10;;;;;;;0.10;0.10;;;;;;;;;;4884280;29;20400;-87
2023/11/09 08:10:39;;;;;;;0.10;0.10;;;;;;;;;;4883678;29;20128;-88
2023/11/09 08:13:05;;;;;;;0.10;0.10;;;;;;;;;;4883650;29;20044;-87
2023/11/09 08:15:32;;;;;;;0.10;0.10;;;;;;;;;;4867903;29;20047;-88
2023/11/09 08:17:58;;;;;;;0.15;0.15;;;;;;;;;;4899060;29;20441;-88
2023/11/09 08:20:24;;;;;;;0.10;0.10;;;;;;;;;;4883426;29;20040;-91
2023/11/09 08:22:50;;;;;;;0.10;0.10;;;;;;;;;;4884272;29;20133;-88
2023/11/09 08:25:18;;;;;;;0.45;0.45;;;;;;;;;;4887435;29;20048;-88
2023/11/09 08:27:44;;;;;;;0.10;0.10;;;;;;;;;;4900939;29;20096;-89
2023/11/09 08:30:11;;;;;;;0.10;0.10;;;;;;;;;;4887344;29;20048;-89
2023/11/09 08:32:37;;;;;;;0.10;0.10;;;;;;;;;;4882772;29;20077;-93
2023/11/09 08:35:09;;;;;;;0.10;0.10;;;;;;;;;;4868303;29;20095;-89
2023/11/09 08:37:36;;;;;;;0.10;0.10;;;;;;;;;;4868322;29;20485;-88
2023/11/09 08:40:06;;;;;;;0.10;0.10;;;;;;;;;;4853346;29;20045;-88
2023/11/09 08:42:33;;;;;;;0.10;0.10;;;;;;;;;;4886420;29;20036;-88
2023/11/09 08:45:00;;;;;;;0.10;0.10;;;;;;;;;;4902352;29;20056;-87
2023/11/09 08:47:26;;;;;;;0.10;0.10;;;;;;;;;;4886547;29;20156;-88
2023/11/09 08:49:52;;;;;;;0.10;0.10;;;;;;;;;;4864787;29;20073;-88
2023/11/09 08:52:18;;;;;;;0.20;0.20;;;;;;;;;;4880533;29;20049;-88
2023/11/09 08:54:46;;;;;;;0.10;0.10;;;;;;;;;;4864780;29;20049;-89
2023/11/09 08:57:12;;;;;;;0.10;0.10;;;;;;;;;;4880673;29;20063;-89
2023/11/09 08:59:39;;;;;;;0.10;0.10;;;;;;;;;;4879758;29;20490;-88
2023/11/09 09:02:06;;;;;;;0.30;0.30;;;;;;;;;;4880230;29;20493;-89
2023/11/09 09:04:32;;;;;;;0.10;0.10;;;;;;;;;;4879712;29;20416;-89
2023/11/09 09:06:58;;;;;;;0.10;0.10;;;;;;;;;;4864797;29;20044;-89
2023/11/09 09:09:24;;;;;;;0.10;0.10;;;;;;;;;;4880123;29;20074;-89
2023/11/09 09:11:51;;;;;;;0.10;0.10;;;;;;;;;;4879935;29;20052;-90
2023/11/09 09:14:18;;;;;;;0.10;0.10;;;;;;;;;;4880277;29;20481;-89
2023/11/09 09:16:44;;;;;;;0.10;0.10;;;;;;;;;;4880073;29;20122;-89
2023/11/09 09:19:12;;;;;;;0.10;0.10;;;;;;;;;;4880283;29;20048;-92
2023/11/09 09:21:38;;;;;;;0.10;0.10;;;;;;;;;;4864474;29;20044;-88
2023/11/09 09:24:04;;;;;;;0.10;0.10;;;;;;;;;;4880091;29;20089;-88
2023/11/09 09:26:33;;;;;;;0.10;0.10;;;;;;;;;;4879853;29;20045;-88
2023/11/09 09:28:59;;;;;;;0.10;0.10;;;;;;;;;;4864371;29;20056;-88
2023/11/09 09:31:25;;;;;;;0.10;0.10;;;;;;;;;;4864622;29;20049;-88
2023/11/09 09:34:02;;;;;;;0.10;0.10;;;;;;;;;;4864211;29;20568;-89
2023/11/09 09:36:27;;;;;;;0.10;0.10;;;;;;;;;;4879232;29;20037;-88
2023/11/09 09:38:53;;;;;;;0.10;0.10;;;;;;;;;;4879574;29;20045;-88
2023/11/09 09:41:26;;;;;;;0.10;0.10;;;;;;;;;;4895271;29;20129;-88
2023/11/09 09:43:52;;;;;;;0.10;0.10;;;;;;;;;;4879559;29;20044;-88
2023/11/09 09:46:18;;;;;;;0.10;0.10;;;;;;;;;;4879670;29;20048;-87
2023/11/09 09:48:45;;;;;;;0.10;0.10;;;;;;;;;;4879811;29;20041;-89
2023/11/09 09:51:11;;;;;;;0.10;0.10;;;;;;;;;;4879188;29;20052;-87
2023/11/09 09:53:38;;;;;;;0.10;0.10;;;;;;;;;;4879312;29;20045;-90
2023/11/09 09:56:04;;;;;;;0.10;0.10;;;;;;;;;;4863754;29;20048;-90
2023/11/09 09:58:31;;;;;;;0.10;0.10;;;;;;;;;;4879373;29;20072;-88
2023/11/09 10:00:57;;;;;;;0.10;0.10;;;;;;;;;;4879469;29;20045;-86
2023/11/09 10:03:23;;;;;;;0.10;0.10;;;;;;;;;;4878992;29;20037;-86
2023/11/09 10:05:49;;;;;;;0.10;0.10;;;;;;;;;;4864048;29;20068;-86
2023/11/09 10:08:15;;;;;;;0.10;0.10;;;;;;;;;;4845156;29;20077;-86
2023/11/09 10:10:44;;;;;;;0.10;0.10;;;;;;;;;;4845020;29;20064;-86
2023/11/09 10:13:10;;;;;;;0.10;0.10;;;;;;;;;;4845432;29;20049;-86
2023/11/09 10:15:36;;;;;;;0.10;0.10;;;;;;;;;;4860219;29;20050;-86
2023/11/09 10:18:02;;;;;;;0.10;0.10;;;;;;;;;;4845024;29;20218;-87
2023/11/09 10:20:29;;;;;;;0.10;0.10;;;;;;;;;;4860222;29;20045;-87
2023/11/09 10:22:55;;;;;;;0.20;0.20;;;;;;;;;;4844825;29;20490;-86
2023/11/09 10:25:26;;;;;;;0.10;0.10;;;;;;;;;;4845130;29;20050;-86
2023/11/09 10:27:54;;;;;;;0.10;0.10;;;;;;;;;;4845461;29;20124;-86
2023/11/09 10:30:20;;;;;;;0.10;0.10;;;;;;;;;;4845001;29;20056;-87
2023/11/09 10:32:46;;;;;;;0.10;0.10;;;;;;;;;;4860005;29;20045;-88
2023/11/09 10:35:13;;;;;;;0.10;0.10;;;;;;;;;;4844679;29;20513;-86
2023/11/09 10:37:40;;;;;;;0.10;0.10;;;;;;;;;;4860993;29;20497;-87
2023/11/09 10:40:13;;;;;;;0.10;0.10;;;;;;;;;;4844755;29;20045;-87
2023/11/09 10:42:39;;;;;;;;;;;;;;;;;;4860296;29;20076;-87
2023/11/09 10:45:10;;;;;;;0.10;0.10;;;;;;;;;;4859819;29;19940;-88
2023/11/09 10:47:37;;;;;;;0.10;0.10;;;;;;;;;;4844218;29;20053;-88
2023/11/09 10:50:07;;;;;;;0.10;0.10;;;;;;;;;;4844159;29;20065;-91
2023/11/09 10:52:33;;;;;;;0.10;0.10;;;;;;;;;;4845382;29;20053;-90
2023/11/09 10:54:59;;;;;;;0.10;0.10;;;;;;;;;;4844323;29;20130;-90
2023/11/09 10:57:26;;;;;;;0.10;0.10;;;;;;;;;;4844519;29;20048;-93
2023/11/09 10:59:55;;;;;;;0.10;0.10;;;;;;;;;;4829380;29;20110;-86
2023/11/09 11:02:27;;;;;;;0.10;0.10;;;;;;;;;;4829916;29;20463;-90
2023/11/09 11:04:55;;;;;;;0.10;0.10;;;;;;;;;;4844459;29;20120;-88
2023/11/09 11:07:22;;;;;;;0.10;0.10;;;;;;;;;;4844727;29;20092;-89
2023/11/09 11:09:51;;;;;;;0.10;0.10;;;;;;;;;;4859478;29;20049;-89
2023/11/09 11:12:17;;;;;;;0.10;0.10;;;;;;;;;;4829443;29;20127;-89
2023/11/09 11:14:43;;;;;;;0.10;0.10;;;;;;;;;;4844058;29;20058;-90
2023/11/09 11:17:13;;;;;;;0.10;0.10;;;;;;;;;;4844160;29;20037;-90
2023/11/09 11:19:59;;;;;;;0.10;0.10;;;;;;;;;;4829243;29;20159;-89
2023/11/09 11:22:25;;;;;;;0.10;0.10;;;;;;;;;;4859244;29;20482;-90
2023/11/09 11:25:02;;;;;;;0.10;0.10;;;;;;;;;;4859487;29;20053;-89
2023/11/09 11:27:37;;;;;;;0.10;0.10;;;;;;;;;;4862284;29;20048;-89
2023/11/09 11:30:32;;;;;;;0.10;0.10;;;;;;;;;;4875321;29;20137;-89
2023/11/09 11:32:59;;;;;;;0.10;0.10;;;;;;;;;;4847526;29;20061;-88
2023/11/09 11:35:42;;;;;;;0.10;0.10;;;;;;;;;;4859208;29;20046;-90
2023/11/09 11:38:09;;;;;;;0.10;0.10;;;;;;;;;;4844557;29;20081;-90
2023/11/09 11:40:39;;;;;;;0.10;0.10;;;;;;;;;;4858073;29;20045;-90
2023/11/09 11:43:05;;;;;;;0.10;0.10;;;;;;;;;;4843742;29;20050;-90
2023/11/09 11:45:31;;;;;;;0.10;0.10;;;;;;;;;;4858932;29;20057;-90
2023/11/09 11:48:01;;;;;;;0.10;0.10;;;;;;;;;;4828831;29;20045;-90
2023/11/09 11:50:27;;;;;;;0.10;0.10;;;;;;;;;;4854332;29;20128;-90
2023/11/09 11:52:57;;;;;;;0.10;0.10;;;;;;;;;;4862161;29;20041;-90
2023/11/09 11:55:28;;;;;;;0.10;0.10;;;;;;;;;;4861992;29;20470;-90
2023/11/09 11:58:04;;;;;;;0.10;0.10;;;;;;;;;;4874433;29;20045;-89
2023/11/09 12:00:57;;;;;;;0.10;0.10;;;;;;;;;;4876209;29;20076;-91
2023/11/09 12:03:24;;;;;;;0.10;0.10;;;;;;;;;;4865291;29;20060;-90
2023/11/09 12:05:53;;;;;;;0.10;0.10;;;;;;;;;;4861967;29;20048;-89
2023/11/09 12:08:19;;;;;;;0.10;0.10;;;;;;;;;;4861288;29;20048;-91
2023/11/09 12:10:45;;;;;;;0.10;0.10;;;;;;;;;;4827911;29;20055;-89
2023/11/09 12:13:11;;;;;;;0.10;0.10;;;;;;;;;;4843245;29;20041;-88
2023/11/09 12:15:37;;;;;;;0.10;0.10;;;;;;;;;;4860439;29;20113;-89
2023/11/09 12:18:04;;;;;;;0.10;0.10;;;;;;;;;;4862086;29;20059;-90
2023/11/09 12:20:33;;;;;;;0.10;0.10;;;;;;;;;;4861650;29;20101;-90
2023/11/09 12:23:11;;;;;;;0.10;0.10;;;;;;;;;;4846699;29;20140;-90
2023/11/09 12:25:50;;;;;;;0.10;0.10;;;;;;;;;;4876906;29;20553;-90
2023/11/09 12:28:16;;;;;;;0.10;0.10;;;;;;;;;;4861711;29;20055;-90
2023/11/09 12:30:45;;;;;;;0.10;0.10;;;;;;;;;;4861533;29;20087;-90
2023/11/09 12:33:12;;;;;;;0.10;0.10;;;;;;;;;;4846845;29;20382;-90
2023/11/09 12:35:38;;;;;;;0.10;0.10;;;;;;;;;;4861439;29;20041;-90
2023/11/09 12:38:05;;;;;;;0.10;0.10;;;;;;;;;;4877002;29;20045;-90
2023/11/09 12:40:31;;;;;;;0.10;0.10;;;;;;;;;;4861357;29;20049;-90
2023/11/09 12:42:57;;;;;;;0.10;0.10;;;;;;;;;;4861912;29;20048;-89
2023/11/09 12:45:23;;;;;;;0.10;0.10;;;;;;;;;;4861950;29;20041;-91
2023/11/09 12:47:49;;;;;;;0.10;0.10;;;;;;;;;;4877055;29;20092;-90
2023/11/09 12:50:19;;;;;;;0.10;0.10;;;;;;;;;;4858806;29;20099;-90
2023/11/09 12:52:46;;;;;;;0.10;0.10;;;;;;;;;;4898877;29;20453;-90
2023/11/09 12:55:13;;;;;;;0.10;0.10;;;;;;;;;;4867588;29;20441;-91
2023/11/09 12:57:43;;;;;;;0.10;0.10;;;;;;;;;;4883266;29;20496;-89
2023/11/09 13:00:29;;;;;;;0.10;0.10;;;;;;;;;;4898519;29;20040;-89
2023/11/09 13:02:56;;;;;;;0.10;0.10;;;;;;;;;;4898656;29;20051;-89
2023/11/09 13:05:23;;;;;;;0.10;0.10;;;;;;;;;;4898510;29;20135;-90
2023/11/09 13:07:55;;;;;;;0.10;0.10;;;;;;;;;;4898507;29;20099;-90
2023/11/09 13:10:24;;;;;;;0.10;0.10;;;;;;;;;;4899778;29;20052;-90
2023/11/09 13:12:52;;;;;;;0.10;0.10;;;;;;;;;;4901944;29;20043;-90
2023/11/09 13:15:41;;;;;;;0.10;0.10;;;;;;;;;;4871256;29;20350;-90
2023/11/09 13:18:07;;;;;;;0.10;0.10;;;;;;;;;;4901595;29;20412;-91
2023/11/09 13:20:36;;;;;;;0.10;0.10;;;;;;;;;;4870872;29;20104;-89
2023/11/09 13:23:06;;;;;;;0.10;0.10;;;;;;;;;;4901879;29;20036;-88
2023/11/09 13:25:35;;;;;;;0.10;0.10;;;;;;;;;;4870836;29;20496;-88
2023/11/09 13:28:09;;;;;;;0.10;0.10;;;;;;;;;;4901756;29;20136;-85
2023/11/09 13:30:50;;;;;;;0.10;0.10;;;;;;;;;;4901466;29;20094;-86
2023/11/09 13:35:57;;;;;;;0.10;0.10;;;;;;;;;;4917284;29;20044;-87
2023/11/09 13:38:40;;;;;;;0.20;0.20;;;;;;;;;;4886357;29;20103;-87
2023/11/09 13:41:16;;;;;;;0.10;0.10;;;;;;;;;;4872463;29;20153;-86
2023/11/09 13:43:58;;;;;;;0.10;0.10;;;;;;;;;;4887101;29;20400;-86
2023/11/09 13:46:25;;;;;;;0.10;0.10;;;;;;;;;;4871762;29;20079;-86
2023/11/09 13:48:51;;;;;;;0.10;0.10;;;;;;;;;;4885966;29;20070;-86
2023/11/09 13:51:24;;;;;;;0.17;0.17;;;;;;;;;;4900984;29;20059;-87
2023/11/09 13:53:56;;;;;;;0.20;0.20;;;;;;;;;;4870932;29;20040;-87
2023/11/09 13:56:37;;;;;;;0.10;0.10;;;;;;;;;;4886348;29;20060;-88
2023/11/09 13:59:12;;;;;;;0.10;0.10;;;;;;;;;;4871883;29;20040;-88
2023/11/09 14:01:41;;;;;;;0.10;0.10;;;;;;;;;;4871099;29;20555;-87
2023/11/09 14:04:07;;;;;;;0.10;0.10;;;;;;;;;;4885740;29;20052;-87
2023/11/09 14:06:35;;;;;;;0.10;0.10;;;;;;;;;;4885414;29;20047;-87
2023/11/09 14:09:01;;;;;;;0.10;0.10;;;;;;;;;;4901012;29;20048;-85
2023/11/09 14:11:27;;;;;;;0.10;0.10;;;;;;;;;;4885479;29;20103;-90
2023/11/09 14:14:06;;;;;;;0.10;0.10;;;;;;;;;;4873879;29;20048;-89
2023/11/09 14:16:34;;;;;;;0.10;0.10;;;;;;;;;;4867746;29;20044;-90
2023/11/09 14:19:20;;;;;;;0.10;0.10;;;;;;;;;;4879136;29;20066;-89
2023/11/09 14:21:46;;;;;;;0.10;0.10;;;;;;;;;;4871758;29;20167;-89
2023/11/09 14:24:12;;;;;;;0.17;0.17;;;;;;;;;;4897910;29;20110;-89
2023/11/09 14:26:38;;;;;;;0.10;0.10;;;;;;;;;;4866477;29;20206;-89
2023/11/09 14:29:10;;;;;;;0.10;0.10;;;;;;;;;;4881576;29;20056;-89
2023/11/09 14:31:39;;;;;;;0.20;0.20;;;;;;;;;;4881630;29;20057;-89
2023/11/09 14:34:12;;;;;;;0.10;0.10;;;;;;;;;;4851038;29;20044;-89
2023/11/09 14:36:42;;;;;;;0.10;0.10;;;;;;;;;;4856905;29;20040;-88
2023/11/09 14:39:28;;;;;;;0.10;0.10;;;;;;;;;;4851242;29;20071;-89
2023/11/09 14:41:55;;;;;;;0.10;0.10;;;;;;;;;;4868688;29;20080;-89
2023/11/09 14:44:21;;;;;;;0.10;0.10;;;;;;;;;;4851029;29;20438;-89
2023/11/09 14:46:53;;;;;;;0.10;0.10;;;;;;;;;;4850784;29;20400;-89
2023/11/09 14:49:19;;;;;;;0.10;0.10;;;;;;;;;;4865818;29;21645;-88
2023/11/09 14:51:47;;;;;;;0.10;0.10;;;;;;;;;;4865878;29;20404;-88
2023/11/09 14:54:13;;;;;;;0.10;0.10;;;;;;;;;;4866011;29;20048;-87
2023/11/09 14:56:40;;;;;;;0.10;0.10;;;;;;;;;;4865726;29;20096;-89
2023/11/09 14:59:06;;;;;;;0.10;0.10;;;;;;;;;;4880998;29;20149;-87